Atlanta, Georgia
Traffic Map
Current Weather Conditions
Atlanta, Georgia
Overcast
Overcast
62°
Feels Like: 62°
Wind Chill: 62° Ceiling: 3500
Heat Index: 62° Visibility: 10mi
Dew Point: 59° Wind: 13mph
Humidity: 90% Direction: 110° (ESE)
Pressure: 29.83in Gusts: 0mph
Raw Report DataKATL 231009Z 11011KT 10SM FEW007 BKN035 BKN050 OVC170 17/15 A2983 RMK AO2 LTG DSNT E TSE05 TS MOV NE CB DSNT E-SE T01670150
Traffic Incident Summary
Active as of:
Severity:
Category:
InformationThere was an issue retrieving the traffic information for this location. Please try a different location or try again shortly.
Advertisements
Track Severe Weather on mobile